Time;durP1;ratioP1;P1;durP2;ratioP2;P2;SDS_P1;SDS_P2;PMS_P1;PMS_P2;Temp;Humidity;BMP_temperature;BMP_pressure;BME280_temperature;BME280_humidity;BME280_pressure;Samples;Min_cycle;Max_cycle;Signal;HPM_P1;HPM_P2
2021/05/30 00:01:25;;;;;;;6.70;6.00;;;;;;;14.11;63.19;100115.19;5053890;28;20199;-75
2021/05/30 00:03:51;;;;;;;7.60;5.80;;;;;;;14.12;63.35;100124.19;5053838;28;20604;-74
2021/05/30 00:06:18;;;;;;;6.03;5.43;;;;;;;14.26;62.70;100117.88;5053922;28;20219;-74
2021/05/30 00:08:44;;;;;;;6.10;5.50;;;;;;;14.44;61.79;100121.22;5054020;28;20299;-74
2021/05/30 00:11:11;;;;;;;6.57;5.22;;;;;;;14.44;61.81;100122.09;5053810;28;20271;-75
2021/05/30 00:13:37;;;;;;;5.90;5.40;;;;;;;14.45;61.90;100113.00;5053932;28;20191;-75
2021/05/30 00:16:05;;;;;;;5.75;4.72;;;;;;;14.52;61.42;100124.31;5053933;28;20193;-73
2021/05/30 00:18:31;;;;;;;5.55;5.05;;;;;;;14.52;61.23;100116.19;5053326;28;20261;-75
2021/05/30 00:20:58;;;;;;;7.03;4.97;;;;;;;14.29;61.70;100113.16;5053384;28;20258;-74
2021/05/30 00:23:24;;;;;;;5.57;5.03;;;;;;;14.25;61.82;100110.75;5053402;28;20329;-74
2021/05/30 00:25:50;;;;;;;5.65;5.15;;;;;;;14.38;61.18;100114.34;5052815;28;20226;-74
2021/05/30 00:28:16;;;;;;;5.35;4.82;;;;;;;14.33;60.97;100114.66;5053067;28;20208;-74
2021/05/30 00:30:42;;;;;;;6.00;4.55;;;;;;;14.24;61.56;100114.41;5053457;28;20586;-75
2021/05/30 00:33:09;;;;;;;5.65;5.10;;;;;;;13.97;62.65;100121.50;5052977;28;20276;-74
2021/05/30 00:35:35;;;;;;;6.03;5.50;;;;;;;14.14;62.09;100119.56;5053392;28;20683;-75
2021/05/30 00:38:01;;;;;;;6.00;5.43;;;;;;;13.75;63.56;100118.44;5052474;28;20289;-74
2021/05/30 00:40:28;;;;;;;6.80;5.22;;;;;;;13.73;63.76;100117.66;5052867;28;20226;-74
2021/05/30 00:42:54;;;;;;;6.00;5.25;;;;;;;13.54;64.72;100116.09;5053290;28;20713;-73
2021/05/30 00:45:20;;;;;;;5.90;5.30;;;;;;;13.69;64.25;100113.38;5053211;28;20306;-74
2021/05/30 00:47:46;;;;;;;5.70;5.20;;;;;;;13.60;64.60;100105.84;5053276;28;20619;-73
2021/05/30 00:50:14;;;;;;;7.75;5.70;;;;;;;13.26;65.87;100114.19;5053306;28;20286;-74
2021/05/30 00:52:41;;;;;;;6.15;5.55;;;;;;;13.47;65.17;100112.00;5052419;28;20240;-75
2021/05/30 00:55:11;;;;;;;6.05;4.95;;;;;;;13.48;65.04;100112.91;5053285;28;20194;-72
2021/05/30 00:57:37;;;;;;;6.70;5.80;;;;;;;13.42;65.05;100118.69;5052793;28;20209;-75
2021/05/30 01:00:05;;;;;;;6.10;5.53;;;;;;;13.65;63.88;100111.84;5052699;28;20327;-74
2021/05/30 01:02:31;;;;;;;5.40;4.50;;;;;;;13.54;64.20;100121.50;5052999;28;20288;-74
2021/05/30 01:04:57;;;;;;;6.97;4.90;;;;;;;13.53;64.34;100118.91;5053020;28;20596;-74
2021/05/30 01:07:25;;;;;;;5.00;4.55;;;;;;;13.56;62.63;100110.56;5052815;28;20694;-74
2021/05/30 01:09:52;;;;;;;5.53;5.03;;;;;;;13.64;63.16;100107.41;5052361;28;20197;-73
2021/05/30 01:12:19;;;;;;;5.03;4.30;;;;;;;13.52;63.43;100120.72;5052562;28;20208;-74
2021/05/30 01:14:46;;;;;;;5.53;4.80;;;;;;;13.52;63.17;100117.13;5052406;28;20182;-74
2021/05/30 01:17:13;;;;;;;5.13;4.40;;;;;;;13.52;62.03;100119.84;5052081;28;20248;-74
2021/05/30 01:19:39;;;;;;;4.68;4.03;;;;;;;13.43;60.79;100117.72;5052750;28;20192;-74
2021/05/30 01:22:07;;;;;;;5.85;3.60;;;;;;;13.39;60.79;100118.88;5052657;28;20619;-74
2021/05/30 01:24:36;;;;;;;7.13;5.63;;;;;;;13.35;60.55;100116.34;5052560;28;20221;-75
2021/05/30 01:27:02;;;;;;;3.70;3.40;;;;;;;13.33;60.47;100128.22;5052523;28;20212;-75
2021/05/30 01:29:28;;;;;;;5.63;3.53;;;;;;;13.46;59.88;100123.81;5052353;28;20542;-74
2021/05/30 01:31:54;;;;;;;4.30;3.90;;;;;;;13.56;59.84;100124.97;5051961;28;20604;-75
2021/05/30 01:34:20;;;;;;;3.92;3.63;;;;;;;13.55;59.59;100122.38;5052271;28;20685;-74
2021/05/30 01:36:47;;;;;;;4.88;4.15;;;;;;;13.37;60.14;100129.78;5052138;28;20216;-74
2021/05/30 01:39:13;;;;;;;4.50;4.05;;;;;;;13.40;60.04;100134.13;5052159;28;20312;-75
2021/05/30 01:41:40;;;;;;;8.35;4.30;;;;;;;13.49;59.54;100129.03;5051948;28;20276;-74
2021/05/30 01:44:06;;;;;;;4.65;4.00;;;;;;;13.37;59.74;100132.50;5052216;28;20744;-74
2021/05/30 01:46:32;;;;;;;3.72;3.40;;;;;;;13.52;59.09;100127.97;5052190;28;20669;-72
2021/05/30 01:48:58;;;;;;;3.85;3.55;;;;;;;13.62;58.53;100131.84;5052391;28;20183;-74
2021/05/30 01:51:24;;;;;;;3.60;3.30;;;;;;;13.30;59.13;100129.28;5052186;28;20703;-74
2021/05/30 01:53:53;;;;;;;4.28;3.90;;;;;;;13.30;59.20;100128.44;5051567;28;20224;-73
2021/05/30 01:59:04;;;;;;;6.20;3.60;;;;;;;13.09;59.68;100126.03;5051672;28;20192;-74
2021/05/30 02:01:32;;;;;;;5.50;4.63;;;;;;;13.05;59.48;100129.88;5055396;28;20292;-74
2021/05/30 02:03:59;;;;;;;5.25;4.10;;;;;;;13.00;60.21;100120.28;5058561;28;20205;-75
2021/05/30 02:06:27;;;;;;;3.92;3.63;;;;;;;13.05;59.88;100123.59;5058237;28;20266;-74
2021/05/30 02:08:54;;;;;;;4.45;3.90;;;;;;;13.01;60.09;100130.16;5058418;28;20207;-73
2021/05/30 02:11:22;;;;;;;8.02;3.90;;;;;;;12.88;60.59;100117.34;5058528;28;20186;-74
2021/05/30 02:13:48;;;;;;;4.20;3.90;;;;;;;12.86;60.66;100127.38;5058679;28;20185;-74
2021/05/30 02:16:16;;;;;;;6.30;3.70;;;;;;;12.88;60.62;100128.16;5058026;28;20296;-73
2021/05/30 02:18:42;;;;;;;5.68;4.35;;;;;;;12.71;61.31;100126.47;5058270;28;20659;-73
2021/05/30 02:21:08;;;;;;;5.18;4.05;;;;;;;12.77;61.54;100118.94;5058551;28;20295;-74
2021/05/30 02:23:34;;;;;;;4.82;4.43;;;;;;;12.75;61.68;100123.56;5057951;28;20701;-75
2021/05/30 02:26:03;;;;;;;4.50;4.05;;;;;;;12.82;61.44;100114.13;5058493;28;20189;-73
2021/05/30 02:28:29;;;;;;;4.30;3.90;;;;;;;12.91;61.35;100110.88;5058594;28;20201;-73
2021/05/30 02:30:55;;;;;;;5.38;4.22;;;;;;;12.80;61.82;100114.25;5058457;28;20234;-74
2021/05/30 02:33:23;;;;;;;4.28;3.63;;;;;;;12.85;61.84;100122.09;5057496;28;20245;-75
2021/05/30 02:35:49;;;;;;;4.82;4.32;;;;;;;12.89;61.55;100127.22;5057729;28;20694;-75
2021/05/30 02:38:15;;;;;;;5.60;4.20;;;;;;;12.87;61.95;100120.16;5057735;28;20224;-73
2021/05/30 02:40:41;;;;;;;6.13;4.50;;;;;;;12.86;61.84;100129.22;5057561;28;20311;-75
2021/05/30 02:43:07;;;;;;;6.07;5.20;;;;;;;12.70;62.84;100130.13;5057434;28;20303;-72
2021/05/30 02:45:34;;;;;;;4.78;4.38;;;;;;;12.80;62.66;100129.56;5057379;28;20192;-74
2021/05/30 02:48:01;;;;;;;6.80;4.80;;;;;;;12.88;62.71;100122.75;5057728;28;20201;-73
2021/05/30 02:50:28;;;;;;;5.03;4.63;;;;;;;12.93;62.40;100123.38;5057697;28;20522;-75
2021/05/30 02:52:54;;;;;;;5.10;4.60;;;;;;;12.76;63.19;100130.75;5057904;28;20246;-74
2021/05/30 02:55:20;;;;;;;7.68;4.50;;;;;;;12.83;63.07;100126.72;5057293;28;20193;-75
2021/05/30 02:57:46;;;;;;;6.65;4.90;;;;;;;12.72;63.62;100124.63;5058029;28;20491;-73
2021/05/30 03:00:14;;;;;;;6.57;4.55;;;;;;;12.91;63.24;100135.22;5058049;28;20486;-73
2021/05/30 03:02:40;;;;;;;5.00;4.45;;;;;;;12.71;63.89;100131.00;5049719;28;20430;-72
2021/05/30 03:05:08;;;;;;;6.07;4.90;;;;;;;12.75;64.07;100131.69;5058175;28;21054;-74
2021/05/30 03:07:36;;;;;;;5.85;5.25;;;;;;;12.71;64.44;100131.88;5057503;28;20203;-74
2021/05/30 03:10:02;;;;;;;7.13;5.68;;;;;;;12.68;64.65;100129.34;5057976;28;20208;-73
2021/05/30 03:12:28;;;;;;;6.32;5.03;;;;;;;12.73;64.61;100129.97;5055769;28;20820;-75
2021/05/30 03:14:54;;;;;;;6.22;5.05;;;;;;;12.64;64.94;100133.19;5054331;28;20189;-74
2021/05/30 03:17:20;;;;;;;6.47;5.82;;;;;;;12.76;64.88;100130.75;5054669;28;20193;-74
2021/05/30 03:19:46;;;;;;;7.45;5.50;;;;;;;12.79;64.67;100134.13;5054131;28;20215;-73
2021/05/30 03:22:12;;;;;;;7.55;4.88;;;;;;;12.71;65.21;100137.28;5054483;28;20284;-75
2021/05/30 03:24:39;;;;;;;6.07;5.20;;;;;;;12.68;65.34;100134.72;5053764;28;20209;-74
2021/05/30 03:27:06;;;;;;;5.93;5.35;;;;;;;12.72;65.46;100136.31;5053983;28;20283;-74
2021/05/30 03:29:32;;;;;;;8.57;5.80;;;;;;;12.69;65.55;100139.19;5053876;28;20197;-73
2021/05/30 03:31:58;;;;;;;6.88;6.18;;;;;;;12.52;66.39;100148.25;5053962;28;20214;-75
2021/05/30 03:34:25;;;;;;;7.70;5.50;;;;;;;12.65;65.99;100145.72;5053567;28;20268;-75
2021/05/30 03:36:54;;;;;;;6.60;5.47;;;;;;;12.76;65.76;100144.25;5054187;28;20190;-72
2021/05/30 03:39:21;;;;;;;8.73;5.70;;;;;;;12.56;66.57;100145.41;5054039;28;20229;-74
2021/05/30 03:41:53;;;;;;;9.25;6.22;;;;;;;12.72;66.02;100139.00;5053959;28;20549;-73
2021/05/30 03:44:19;;;;;;;6.25;5.65;;;;;;;12.61;66.36;100138.75;5053888;28;20386;-75
2021/05/30 03:46:45;;;;;;;6.38;5.63;;;;;;;12.55;67.01;100143.63;5053808;28;20189;-74
2021/05/30 03:49:12;;;;;;;7.70;6.35;;;;;;;12.63;66.62;100142.25;5053900;28;20207;-74
2021/05/30 03:51:38;;;;;;;6.25;5.65;;;;;;;12.31;67.98;100139.56;5053872;28;20595;-74
2021/05/30 03:54:04;;;;;;;7.28;6.20;;;;;;;12.36;68.04;100131.19;5053427;28;20230;-74
2021/05/30 03:56:30;;;;;;;7.55;6.40;;;;;;;12.25;68.45;100136.34;5053681;28;20225;-75
2021/05/30 03:58:58;;;;;;;7.80;6.47;;;;;;;11.97;69.72;100139.72;5054022;28;20288;-73
2021/05/30 04:01:24;;;;;;;9.10;6.55;;;;;;;12.06;69.81;100139.22;5053406;28;20273;-73
2021/05/30 04:03:50;;;;;;;7.13;5.88;;;;;;;12.30;68.94;100134.25;5053481;28;20722;-74
2021/05/30 04:06:17;;;;;;;7.25;6.28;;;;;;;12.17;69.31;100133.22;5053639;28;20189;-73
2021/05/30 04:08:43;;;;;;;7.50;6.75;;;;;;;12.39;68.39;100136.44;5053445;28;20262;-74
2021/05/30 04:11:09;;;;;;;8.95;7.15;;;;;;;12.29;68.97;100129.81;5053128;28;20301;-74
2021/05/30 04:13:35;;;;;;;7.18;5.85;;;;;;;12.25;69.24;100139.91;5053537;28;20188;-74
2021/05/30 04:16:02;;;;;;;12.82;7.97;;;;;;;12.29;69.10;100137.91;5053563;28;20189;-73
2021/05/30 04:18:29;;;;;;;7.57;6.25;;;;;;;12.38;68.81;100125.72;5053273;28;20277;-74
2021/05/30 04:20:55;;;;;;;7.20;6.43;;;;;;;12.42;68.56;100132.69;5053027;28;20336;-74
2021/05/30 04:23:22;;;;;;;10.40;6.20;;;;;;;12.35;69.10;100134.00;5053009;28;20288;-74
2021/05/30 04:25:48;;;;;;;9.93;6.93;;;;;;;12.63;68.07;100125.16;5052563;28;20280;-74
2021/05/30 04:28:14;;;;;;;8.73;6.68;;;;;;;12.46;68.46;100126.16;5053444;28;20297;-74
2021/05/30 04:30:40;;;;;;;8.35;7.40;;;;;;;12.35;69.21;100134.00;5053211;28;20240;-74
2021/05/30 04:33:07;;;;;;;7.32;6.07;;;;;;;12.29;69.66;100125.28;5044933;28;20191;-74
2021/05/30 04:35:33;;;;;;;8.93;6.53;;;;;;;12.40;69.34;100121.09;5053254;28;20186;-74
2021/05/30 04:37:59;;;;;;;8.88;6.10;;;;;;;12.46;69.04;100121.63;5052624;28;20285;-74
2021/05/30 04:40:25;;;;;;;8.25;7.35;;;;;;;12.57;68.63;100123.69;5052742;28;20654;-75
2021/05/30 04:42:52;;;;;;;8.07;6.97;;;;;;;12.60;68.67;100122.66;5052469;28;20283;-74
2021/05/30 04:45:19;;;;;;;7.00;6.10;;;;;;;12.56;68.88;100127.34;5052554;28;20193;-73
2021/05/30 04:47:45;;;;;;;8.88;7.05;;;;;;;12.68;68.42;100132.03;5052226;28;20280;-73
2021/05/30 04:50:13;;;;;;;7.43;6.45;;;;;;;12.52;68.97;100136.59;5052637;28;20221;-74
2021/05/30 04:52:40;;;;;;;10.23;6.95;;;;;;;12.42;69.48;100127.28;5052563;28;20369;-74
2021/05/30 04:55:09;;;;;;;8.25;6.97;;;;;;;12.56;69.03;100131.91;5052494;28;20229;-74
2021/05/30 04:57:35;;;;;;;7.07;6.38;;;;;;;12.55;69.16;100131.03;5052492;28;20190;-74
2021/05/30 05:00:01;;;;;;;10.13;7.10;;;;;;;12.47;69.57;100136.00;5052151;28;20204;-74
2021/05/30 05:02:28;;;;;;;9.88;7.05;;;;;;;12.61;69.27;100130.66;5052824;28;20186;-74
2021/05/30 05:04:54;;;;;;;8.05;6.70;;;;;;;12.80;68.63;100133.16;5052020;28;20202;-75
2021/05/30 05:07:21;;;;;;;9.13;7.00;;;;;;;13.10;67.65;100133.16;5052504;28;20224;-73
2021/05/30 05:09:47;;;;;;;8.48;6.63;;;;;;;13.15;66.87;100128.34;5052826;28;20700;-74
2021/05/30 05:12:13;;;;;;;7.82;6.90;;;;;;;13.15;67.05;100128.34;5052661;28;20189;-75
2021/05/30 05:14:40;;;;;;;8.10;7.30;;;;;;;13.06;67.22;100126.19;5052777;28;20185;-73
2021/05/30 05:17:06;;;;;;;9.98;7.20;;;;;;;13.18;66.80;100135.41;5052837;28;20642;-74
2021/05/30 05:19:32;;;;;;;8.75;7.55;;;;;;;13.35;66.16;100142.53;5052768;28;20648;-74
2021/05/30 05:21:58;;;;;;;8.25;6.80;;;;;;;13.30;66.31;100139.25;5052748;28;20292;-74
2021/05/30 05:24:25;;;;;;;10.95;7.97;;;;;;;13.28;66.24;100147.44;5052715;28;21064;-75
2021/05/30 05:26:51;;;;;;;8.80;7.22;;;;;;;13.26;66.38;100149.34;5052482;28;20679;-74
2021/05/30 05:29:17;;;;;;;9.93;7.30;;;;;;;13.17;67.03;100149.03;5052794;28;20213;-74
2021/05/30 05:31:43;;;;;;;9.80;6.82;;;;;;;13.01;67.18;100158.06;5052263;28;20182;-75
2021/05/30 05:34:10;;;;;;;10.35;6.68;;;;;;;13.34;66.38;100159.72;5052429;28;20632;-72
2021/05/30 05:36:36;;;;;;;8.88;7.50;;;;;;;13.30;66.16;100153.63;5051771;28;20272;-75
2021/05/30 05:39:03;;;;;;;8.90;7.65;;;;;;;13.38;66.15;100158.56;5052057;28;20263;-73
2021/05/30 05:41:30;;;;;;;13.02;7.60;;;;;;;13.46;65.75;100152.69;5052271;28;20632;-73
2021/05/30 05:43:57;;;;;;;11.07;7.60;;;;;;;13.80;64.53;100150.63;5051960;28;20308;-76
2021/05/30 05:46:23;;;;;;;11.35;7.53;;;;;;;13.53;65.20;100162.19;5052265;28;20276;-75
2021/05/30 05:48:49;;;;;;;9.20;7.05;;;;;;;13.74;64.43;100151.84;5051698;28;20623;-74
2021/05/30 05:51:15;;;;;;;8.43;7.38;;;;;;;13.82;64.01;100149.53;5052237;28;20193;-74
2021/05/30 05:53:41;;;;;;;9.57;6.93;;;;;;;13.71;64.17;100161.03;5051942;28;20186;-74
2021/05/30 05:56:07;;;;;;;7.55;6.40;;;;;;;14.01;63.08;100159.22;5052067;28;20717;-72
2021/05/30 05:58:37;;;;;;;7.75;6.28;;;;;;;14.22;62.42;100160.53;5052272;28;20268;-73
2021/05/30 06:01:04;;;;;;;9.45;6.75;;;;;;;14.16;62.21;100158.22;5051813;28;20195;-73
2021/05/30 06:03:30;;;;;;;7.13;6.40;;;;;;;14.35;61.87;100161.47;5052110;28;20275;-74
2021/05/30 06:05:56;;;;;;;6.90;5.93;;;;;;;14.33;61.87;100163.41;5052107;28;20605;-72
2021/05/30 06:08:22;;;;;;;7.30;6.60;;;;;;;14.22;61.68;100163.22;5051704;28;20191;-75
2021/05/30 06:10:49;;;;;;;6.82;6.10;;;;;;;14.34;61.40;100159.75;5051764;28;20239;-74
2021/05/30 06:13:15;;;;;;;8.00;6.45;;;;;;;14.51;61.08;100166.75;5051941;28;20220;-73
2021/05/30 06:15:42;;;;;;;6.50;5.85;;;;;;;14.60;60.65;100160.78;5051419;28;20203;-75
2021/05/30 06:18:11;;;;;;;6.80;6.13;;;;;;;14.72;60.07;100167.25;5052037;28;20600;-75
2021/05/30 06:20:38;;;;;;;8.15;5.82;;;;;;;14.71;59.82;100170.06;5051568;28;20186;-74
2021/05/30 06:23:05;;;;;;;9.50;6.63;;;;;;;14.52;60.61;100159.53;5051988;28;20198;-72
2021/05/30 06:25:31;;;;;;;6.82;6.13;;;;;;;14.59;60.25;100167.19;5052010;28;20274;-74
2021/05/30 06:27:58;;;;;;;7.60;6.57;;;;;;;14.67;59.96;100166.66;5052035;28;20231;-75
2021/05/30 06:30:24;;;;;;;6.97;6.15;;;;;;;14.79;59.57;100167.72;5052090;28;20286;-74
2021/05/30 06:32:51;;;;;;;7.10;6.20;;;;;;;14.78;59.27;100165.97;5051761;28;20222;-73
2021/05/30 06:35:18;;;;;;;6.13;5.53;;;;;;;14.89;58.75;100166.09;5052046;28;20308;-72
2021/05/30 06:37:44;;;;;;;7.60;6.05;;;;;;;14.92;58.82;100157.75;5051781;28;20198;-74
2021/05/30 06:40:12;;;;;;;8.85;6.30;;;;;;;15.18;58.17;100171.41;5051700;28;20755;-73
2021/05/30 06:42:38;;;;;;;7.50;6.28;;;;;;;15.37;57.25;100169.16;5051824;28;20197;-74
2021/05/30 06:45:06;;;;;;;10.18;6.80;;;;;;;15.23;57.41;100170.09;5051734;28;20707;-74
2021/05/30 06:47:32;;;;;;;7.47;6.32;;;;;;;15.38;57.23;100168.19;5052837;28;20289;-73
2021/05/30 06:49:59;;;;;;;6.72;5.40;;;;;;;15.63;56.52;100172.78;5055171;28;20189;-73
2021/05/30 06:52:25;;;;;;;8.27;5.32;;;;;;;15.81;55.71;100175.22;5055655;28;20222;-74
2021/05/30 06:54:52;;;;;;;7.18;5.90;;;;;;;16.03;54.98;100169.09;5055107;28;20303;-73
2021/05/30 06:57:18;;;;;;;6.70;5.45;;;;;;;16.08;54.26;100171.50;5055527;28;20279;-74
2021/05/30 06:59:44;;;;;;;7.38;5.95;;;;;;;15.86;55.08;100189.34;5055415;28;20265;-73
2021/05/30 07:02:11;;;;;;;8.88;6.32;;;;;;;16.01;54.76;100188.25;5055409;28;20291;-74
2021/05/30 07:04:37;;;;;;;7.97;5.38;;;;;;;15.76;55.17;100189.13;5055414;28;20208;-73
2021/05/30 07:07:04;;;;;;;6.85;5.78;;;;;;;16.33;54.22;100170.59;5054957;28;20370;-72
2021/05/30 07:09:30;;;;;;;6.65;5.57;;;;;;;16.16;53.84;100172.69;5055339;28;20219;-73
2021/05/30 07:11:56;;;;;;;5.53;4.57;;;;;;;16.51;53.41;100173.78;5055107;28;20188;-75
2021/05/30 07:14:22;;;;;;;6.05;5.38;;;;;;;16.60;52.90;100184.03;5054684;28;20249;-73
2021/05/30 07:16:49;;;;;;;6.10;5.45;;;;;;;16.71;52.73;100170.50;5055372;28;20220;-73
2021/05/30 07:19:15;;;;;;;6.45;5.85;;;;;;;16.68;52.81;100168.00;5054755;28;20199;-73
2021/05/30 07:21:41;;;;;;;6.10;5.50;;;;;;;16.49;53.36;100173.06;5055209;28;20232;-74
2021/05/30 07:24:08;;;;;;;6.18;5.55;;;;;;;16.66;52.90;100168.13;5054964;28;20705;-75
2021/05/30 07:26:37;;;;;;;6.57;5.70;;;;;;;16.97;52.03;100176.72;5054848;28;20187;-74
2021/05/30 07:29:03;;;;;;;5.88;5.30;;;;;;;17.25;51.12;100177.31;5054520;28;20342;-74
2021/05/30 07:31:30;;;;;;;7.07;5.35;;;;;;;17.28;50.71;100179.81;5054397;28;20276;-74
2021/05/30 07:33:56;;;;;;;5.97;5.28;;;;;;;17.14;51.28;100171.84;5054896;28;20214;-73
2021/05/30 07:36:24;;;;;;;6.75;5.40;;;;;;;17.43;50.04;100165.00;5054954;28;20912;-74
2021/05/30 07:38:50;;;;;;;5.63;5.07;;;;;;;17.53;50.11;100169.75;5054223;28;20646;-75
2021/05/30 07:41:17;;;;;;;6.70;5.70;;;;;;;17.82;49.35;100178.38;5054521;28;20185;-75
2021/05/30 07:43:44;;;;;;;6.00;5.40;;;;;;;18.01;48.73;100173.19;5054169;28;20228;-73
2021/05/30 07:46:10;;;;;;;5.80;5.20;;;;;;;18.00;48.56;100181.50;5054833;28;20972;-74
2021/05/30 07:48:36;;;;;;;5.90;5.35;;;;;;;17.63;49.48;100174.34;5054188;28;20186;-76
2021/05/30 07:51:02;;;;;;;7.25;6.13;;;;;;;17.62;49.59;100175.34;5054322;28;20233;-74
2021/05/30 07:53:28;;;;;;;6.78;5.30;;;;;;;17.88;49.69;100173.31;5054275;28;20190;-74
2021/05/30 07:55:54;;;;;;;5.70;5.10;;;;;;;17.71;49.62;100177.34;5053850;28;20182;-74
2021/05/30 07:58:21;;;;;;;6.75;4.55;;;;;;;17.67;49.98;100166.81;5053546;28;20210;-72
2021/05/30 08:00:48;;;;;;;10.77;5.78;;;;;;;18.02;49.02;100174.06;5053767;28;20276;-74
2021/05/30 08:03:15;;;;;;;6.00;5.40;;;;;;;18.45;47.86;100174.19;5053586;28;20201;-74
2021/05/30 08:05:41;;;;;;;8.18;6.68;;;;;;;18.60;48.07;100179.38;5053776;28;20201;-75
2021/05/30 08:08:07;;;;;;;5.43;4.90;;;;;;;18.50;47.82;100182.00;5053532;28;20228;-75
2021/05/30 08:10:33;;;;;;;6.40;5.25;;;;;;;18.45;47.46;100185.09;5053877;28;20547;-74
2021/05/30 08:12:59;;;;;;;5.85;4.40;;;;;;;18.13;47.69;100177.69;5053844;28;20244;-74
2021/05/30 08:15:26;;;;;;;5.47;4.95;;;;;;;17.99;48.16;100180.63;5053831;28;20260;-75
2021/05/30 08:17:55;;;;;;;8.45;5.03;;;;;;;18.43;47.45;100175.28;5053361;28;20201;-75
2021/05/30 08:20:23;;;;;;;5.45;4.85;;;;;;;18.85;46.93;100178.22;5053919;28;20193;-74
2021/05/30 08:22:50;;;;;;;4.72;4.28;;;;;;;18.78;46.12;100183.34;5053793;28;20295;-75
2021/05/30 08:25:17;;;;;;;5.32;4.82;;;;;;;18.92;45.70;100183.03;5053568;28;20241;-73
2021/05/30 08:27:44;;;;;;;6.50;5.10;;;;;;;19.28;45.50;100177.34;5053276;28;20259;-75
2021/05/30 08:30:12;;;;;;;6.18;5.57;;;;;;;18.83;46.23;100175.63;5053774;28;20290;-74
2021/05/30 08:32:39;;;;;;;5.70;5.20;;;;;;;18.69;46.64;100175.88;5053135;28;20201;-74
2021/05/30 08:35:06;;;;;;;5.60;5.10;;;;;;;18.54;46.59;100175.28;5052884;28;20284;-75
2021/05/30 08:37:33;;;;;;;4.95;4.55;;;;;;;18.63;46.10;100173.66;5053122;28;20276;-76
2021/05/30 08:39:59;;;;;;;5.03;4.63;;;;;;;19.18;44.79;100177.25;5054027;28;20325;-76
2021/05/30 08:42:25;;;;;;;4.80;4.30;;;;;;;19.14;44.65;100170.31;5054128;28;20259;-76
2021/05/30 08:44:52;;;;;;;5.25;4.75;;;;;;;19.29;44.21;100177.22;5054061;28;20717;-76
2021/05/30 08:47:19;;;;;;;5.35;3.83;;;;;;;19.15;44.75;100172.03;5054372;28;20748;-75
2021/05/30 08:49:46;;;;;;;5.20;4.70;;;;;;;19.57;44.22;100172.09;5053968;28;20213;-75
2021/05/30 08:52:13;;;;;;;4.90;4.00;;;;;;;19.88;42.70;100173.06;5053537;28;20304;-74
2021/05/30 08:54:39;;;;;;;5.35;4.35;;;;;;;20.03;41.92;100169.97;5053978;28;20688;-74
2021/05/30 08:57:06;;;;;;;4.90;3.90;;;;;;;19.85;41.45;100173.31;5053349;28;20204;-75
2021/05/30 08:59:33;;;;;;;6.30;4.35;;;;;;;20.26;40.99;100155.13;5053670;28;20280;-75
2021/05/30 09:02:02;;;;;;;4.20;3.80;;;;;;;20.38;41.41;100158.59;5053976;28;20232;-75
2021/05/30 09:04:33;;;;;;;4.47;3.80;;;;;;;20.18;40.62;100149.47;5053366;28;20219;-76
2021/05/30 09:07:00;;;;;;;6.05;4.13;;;;;;;19.93;40.81;100161.72;5054263;28;20696;-74
2021/05/30 09:09:38;;;;;;;4.63;3.83;;;;;;;19.97;40.21;100168.66;5052698;28;20216;-74
2021/05/30 09:12:10;;;;;;;6.00;3.47;;;;;;;19.61;40.34;100159.91;5051241;28;20184;-74
2021/05/30 09:14:44;;;;;;;3.92;3.63;;;;;;;20.05;40.02;100157.88;5053153;28;20193;-74
2021/05/30 09:17:11;;;;;;;3.38;3.08;;;;;;;20.33;39.68;100164.50;5053133;28;20690;-75
2021/05/30 09:19:40;;;;;;;7.25;4.10;;;;;;;20.54;38.67;100169.88;5052764;28;20204;-73
2021/05/30 09:22:20;;;;;;;4.22;3.15;;;;;;;20.30;37.42;100155.69;5052845;28;20202;-73
2021/05/30 09:25:16;;;;;;;3.33;3.13;;;;;;;20.79;35.68;100167.66;5052938;28;20298;-74
2021/05/30 09:27:51;;;;;;;3.92;3.05;;;;;;;21.10;34.20;100157.50;5052253;28;20284;-74
2021/05/30 09:30:23;;;;;;;3.60;2.83;;;;;;;20.87;35.29;100154.16;5052233;28;20192;-74
2021/05/30 09:33:10;;;;;;;2.27;2.10;;;;;;;21.18;32.76;100156.75;5052343;28;20515;-75
2021/05/30 09:35:48;;;;;;;3.08;2.78;;;;;;;21.17;34.61;100172.31;5052735;28;20486;-75
2021/05/30 09:38:17;;;;;;;6.32;3.67;;;;;;;21.06;35.94;100164.25;5052445;28;20295;-74
2021/05/30 09:40:45;;;;;;;4.07;3.63;;;;;;;21.15;35.45;100162.53;5052155;28;20358;-74
2021/05/30 09:43:14;;;;;;;2.40;2.20;;;;;;;20.66;35.13;100158.84;5034921;28;20820;-74
2021/05/30 09:45:42;;;;;;;2.70;2.50;;;;;;;20.21;35.69;100157.38;5051775;28;20519;-73
2021/05/30 09:48:18;;;;;;;3.38;2.35;;;;;;;20.42;34.01;100140.91;5051882;28;20235;-74
2021/05/30 09:51:02;;;;;;;3.65;2.80;;;;;;;20.95;31.48;100157.03;5052646;28;20200;-75
2021/05/30 09:53:29;;;;;;;3.15;2.40;;;;;;;21.07;30.95;100151.41;5052153;28;20192;-74
2021/05/30 09:55:55;;;;;;;2.75;2.55;;;;;;;21.35;30.42;100156.03;5052418;28;20729;-74
2021/05/30 09:58:24;;;;;;;2.45;2.10;;;;;;;21.18;30.66;100145.81;5051371;28;20216;-74
2021/05/30 10:00:59;;;;;;;2.88;2.10;;;;;;;20.82;30.98;100157.28;5049417;28;20282;-73
2021/05/30 10:03:26;;;;;;;3.05;2.30;;;;;;;20.64;31.14;100142.56;5051432;28;20302;-73
2021/05/30 10:05:52;;;;;;;2.33;2.13;;;;;;;20.73;31.00;100146.34;5051893;28;20625;-74
2021/05/30 10:08:20;;;;;;;2.42;2.22;;;;;;;21.17;30.19;100150.41;5051776;28;20277;-73
2021/05/30 10:10:47;;;;;;;3.55;2.60;;;;;;;21.16;30.16;100154.16;5051644;28;20250;-74
2021/05/30 10:13:14;;;;;;;2.50;2.30;;;;;;;21.06;30.07;100141.50;5051162;28;20224;-74
2021/05/30 10:15:40;;;;;;;2.85;2.13;;;;;;;21.15;29.68;100144.22;5051539;28;20608;-75
2021/05/30 10:18:11;;;;;;;2.95;2.65;;;;;;;20.85;30.20;100131.53;5051482;28;20200;-73
2021/05/30 10:20:39;;;;;;;4.97;2.63;;;;;;;20.97;30.22;100143.22;5051328;28;20271;-74
2021/05/30 10:23:08;;;;;;;2.85;2.60;;;;;;;20.96;29.74;100141.47;5054084;28;20247;-72
2021/05/30 10:25:36;;;;;;;3.60;2.95;;;;;;;21.08;30.39;100134.88;5055605;28;20295;-74
2021/05/30 10:28:11;;;;;;;2.60;2.40;;;;;;;21.21;30.43;100129.97;5055549;28;20216;-75
2021/05/30 10:30:38;;;;;;;2.83;2.20;;;;;;;21.18;29.87;100132.13;5055540;28;20234;-74
2021/05/30 10:33:16;;;;;;;2.47;2.28;;;;;;;21.32;29.42;100126.19;5055814;28;20832;-73
2021/05/30 10:35:45;;;;;;;2.38;2.17;;;;;;;21.24;29.57;100123.31;5055370;28;20529;-75
2021/05/30 10:38:12;;;;;;;2.63;2.30;;;;;;;21.19;29.33;100131.13;5054831;28;20212;-74
2021/05/30 10:40:41;;;;;;;3.60;2.60;;;;;;;21.13;30.09;100126.22;5054890;28;20474;-73
2021/05/30 10:43:21;;;;;;;2.70;2.23;;;;;;;21.22;29.53;100120.72;5054925;28;20228;-73
2021/05/30 10:46:07;;;;;;;4.07;2.60;;;;;;;21.02;29.46;100108.03;5054666;28;20450;-74
2021/05/30 10:48:35;;;;;;;2.70;2.50;;;;;;;21.34;29.63;100118.69;5055533;28;20438;-73
2021/05/30 10:54:05;;;;;;;3.33;2.23;;;;;;;21.32;29.99;100109.75;5055130;28;20541;-74
2021/05/30 10:56:34;;;;;;;6.33;2.90;;;;;;;21.15;30.13;100114.09;5055291;28;20443;-73
2021/05/30 10:59:23;;;;;;;3.83;3.20;;;;;;;21.34;30.14;100107.72;5054839;28;20432;-75
2021/05/30 11:01:51;;;;;;;3.50;2.77;;;;;;;21.27;29.96;100094.78;5046581;28;20444;-74
2021/05/30 11:04:38;;;;;;;3.60;3.03;;;;;;;21.39;30.19;100094.50;5054596;28;20463;-74
2021/05/30 11:07:42;;;;;;;4.20;2.60;;;;;;;21.28;29.46;100097.38;5054543;28;20455;-73
2021/05/30 11:10:13;;;;;;;2.90;2.60;;;;;;;21.22;29.54;100089.75;5053011;28;20479;-74
2021/05/30 11:12:51;;;;;;;2.95;2.30;;;;;;;21.16;29.87;100088.44;5055033;28;20438;-75
2021/05/30 11:15:39;;;;;;;2.97;2.40;;;;;;;21.34;30.09;100085.81;5054309;28;20193;-74
2021/05/30 11:18:06;;;;;;;2.63;2.43;;;;;;;21.47;29.83;100082.81;5054259;28;20271;-72
2021/05/30 11:20:45;;;;;;;2.00;1.90;;;;;;;21.70;29.60;100075.09;5054159;28;20489;-74
2021/05/30 11:23:19;;;;;;;2.53;2.33;;;;;;;21.62;30.09;100080.47;5066201;28;20455;-76
2021/05/30 11:25:48;;;;;;;3.50;3.20;;;;;;;21.61;29.74;100086.97;5061595;28;20460;-75
2021/05/30 11:28:16;;;;;;;2.80;2.60;;;;;;;21.67;30.19;100080.03;5055445;28;20454;-74
2021/05/30 11:30:49;;;;;;;2.60;2.40;;;;;;;21.38;30.57;100073.56;5054703;28;20781;-74
2021/05/30 11:33:39;;;;;;;2.70;2.50;;;;;;;21.57;29.78;100080.03;5053860;28;20448;-75